createdAt,value
2023-03-05T00:02:09.049Z,100853.94
2023-03-05T00:04:39.564Z,100851.47
2023-03-05T00:07:12.653Z,100845.81
2023-03-05T00:09:45.074Z,100853.84
2023-03-05T00:12:15.787Z,100845.75
2023-03-05T00:14:46.349Z,100840.50
2023-03-05T00:17:16.493Z,100848.09
2023-03-05T00:19:46.970Z,100847.66
2023-03-05T00:22:17.062Z,100847.66
2023-03-05T00:24:52.529Z,100841.56
2023-03-05T00:27:23.118Z,100851.63
2023-03-05T00:29:53.497Z,100843.09
2023-03-05T00:32:24.046Z,100839.47
2023-03-05T00:34:54.147Z,100837.81
2023-03-05T00:37:24.540Z,100832.56
2023-03-05T00:39:57.643Z,100826.94
2023-03-05T00:42:28.100Z,100819.69
2023-03-05T00:44:58.027Z,100817.25
2023-03-05T00:47:28.875Z,100805.56
2023-03-05T00:49:59.584Z,100794.31
2023-03-05T00:52:30.395Z,100793.84
2023-03-05T00:55:04.644Z,100792.22
2023-03-05T00:57:34.715Z,100786.97
2023-03-05T01:00:05.400Z,100783.69
2023-03-05T01:02:42.097Z,100778.06
2023-03-05T01:05:15.836Z,100785.69
2023-03-05T01:07:46.048Z,100780.41
2023-03-05T01:10:18.335Z,100778.44
2023-03-05T01:12:48.874Z,100765.56
2023-03-05T01:15:19.400Z,100772.34
2023-03-05T01:17:49.828Z,100774.00
2023-03-05T01:20:22.943Z,100771.53
2023-03-05T01:22:54.393Z,100774.34
2023-03-05T01:25:27.735Z,100765.91
2023-03-05T01:27:59.439Z,100769.09
2023-03-05T01:30:30.339Z,100761.03
2023-03-05T01:33:00.767Z,100767.84
2023-03-05T01:35:31.758Z,100766.19
2023-03-05T01:38:02.387Z,100760.56
2023-03-05T01:40:35.762Z,100769.00
2023-03-05T01:43:30.697Z,100765.72
2023-03-05T01:49:35.691Z,100759.22
2023-03-05T01:52:18.797Z,100764.84
2023-03-05T01:54:56.041Z,100763.22
2023-03-05T01:57:33.643Z,100760.03
2023-03-05T02:00:12.291Z,100761.22
2023-03-05T02:02:43.216Z,100765.19
2023-03-05T02:05:27.349Z,100764.00
2023-03-05T02:07:58.850Z,100768.00
2023-03-05T02:10:32.745Z,100764.38
2023-03-05T02:13:08.195Z,100765.56
2023-03-05T02:15:39.891Z,100766.75
2023-03-05T02:18:12.988Z,100777.59
2023-03-05T02:20:52.035Z,100774.34
2023-03-05T02:23:26.021Z,100764.31
2023-03-05T02:25:56.023Z,100763.47
2023-03-05T02:28:33.299Z,100759.03
2023-03-05T02:31:03.836Z,100756.22
2023-03-05T02:33:34.610Z,100755.41
2023-03-05T02:36:05.033Z,100763.84
2023-03-05T02:38:37.358Z,100763.00
2023-03-05T02:41:07.961Z,100767.84
2023-03-05T02:43:38.771Z,100767.00
2023-03-05T02:46:10.270Z,100767.84
2023-03-05T02:48:41.519Z,100767.38
2023-03-05T02:51:13.312Z,100770.56
2023-03-05T02:53:45.913Z,100772.19
2023-03-05T02:56:16.698Z,100761.28
2023-03-05T02:58:48.016Z,100765.28
2023-03-05T03:01:17.806Z,100766.13
2023-03-05T03:03:48.282Z,100769.25
2023-03-05T03:06:18.764Z,100766.44
2023-03-05T03:08:51.843Z,100765.66
2023-03-05T03:11:22.309Z,100761.22
2023-03-05T03:13:52.509Z,100764.84
2023-03-05T03:16:23.069Z,100766.03
2023-03-05T03:18:53.369Z,100757.59
2023-03-05T03:21:27.685Z,100763.22
2023-03-05T03:24:00.156Z,100760.75
2023-03-05T03:26:30.944Z,100755.13
2023-03-05T03:29:01.174Z,100760.75
2023-03-05T03:31:31.226Z,100756.31
2023-03-05T03:34:01.714Z,100751.88
2023-03-05T03:36:32.502Z,100748.25
2023-03-05T03:39:05.093Z,100748.25
2023-03-05T03:41:35.458Z,100739.81
2023-03-05T03:44:08.029Z,100743.00
2023-03-05T03:46:38.740Z,100750.59
2023-03-05T03:49:10.167Z,100748.63
2023-03-05T03:51:40.179Z,100738.19
2023-03-05T03:54:13.650Z,100746.25
2023-03-05T03:56:44.885Z,100745.44
2023-03-05T03:59:16.803Z,100737.38
2023-03-05T04:01:48.364Z,100730.13
2023-03-05T04:04:19.017Z,100724.50
2023-03-05T04:06:49.562Z,100724.50
2023-03-05T04:09:21.282Z,100708.00
2023-03-05T04:11:52.336Z,100722.88
2023-03-05T04:14:24.832Z,100713.19
2023-03-05T04:16:55.486Z,100712.00
2023-03-05T04:19:25.499Z,100711.53
2023-03-05T04:21:56.884Z,100710.38
2023-03-05T04:24:30.018Z,100707.91
2023-03-05T04:27:00.452Z,100707.91
2023-03-05T04:29:31.035Z,100693.84
2023-03-05T04:32:01.014Z,100696.66
2023-03-05T04:34:33.292Z,100691.88
2023-03-05T04:37:03.961Z,100694.31
2023-03-05T04:39:36.566Z,100699.94
2023-03-05T04:42:07.379Z,100708.00
2023-03-05T04:44:37.982Z,100704.38
2023-03-05T04:47:08.445Z,100707.66
2023-03-05T04:49:39.024Z,100712.53
2023-03-05T04:52:09.154Z,100711.00
2023-03-05T04:54:42.473Z,100711.06
2023-03-05T04:57:12.975Z,100708.34
2023-03-05T04:59:43.866Z,100705.63
2023-03-05T05:02:14.689Z,100711.31
2023-03-05T05:04:46.371Z,100707.41
2023-03-05T05:07:17.172Z,100707.97
2023-03-05T05:09:49.984Z,100703.72
2023-03-05T05:12:20.381Z,100698.63
2023-03-05T05:14:50.879Z,100699.16
2023-03-05T05:17:21.440Z,100678.78
2023-03-05T05:19:52.212Z,100687.44
2023-03-05T05:22:22.712Z,100686.78
2023-03-05T05:24:56.465Z,100690.53
2023-03-05T05:27:27.161Z,100695.16
2023-03-05T05:29:57.997Z,100705.38
2023-03-05T05:32:28.533Z,100708.78
2023-03-05T05:34:59.858Z,100707.75
2023-03-05T05:37:32.493Z,100708.34
2023-03-05T05:40:08.798Z,100710.59
2023-03-05T05:42:39.500Z,100722.06
2023-03-05T05:45:12.008Z,100733.53
2023-03-05T05:47:42.462Z,100743.38
2023-03-05T05:50:15.372Z,100749.69
2023-03-05T05:52:45.256Z,100750.25
2023-03-05T05:55:20.171Z,100742.00
2023-03-05T05:57:50.533Z,100744.19
2023-03-05T06:00:22.342Z,100748.84
2023-03-05T06:02:52.592Z,100747.78
2023-03-05T06:05:23.201Z,100740.69
2023-03-05T06:07:53.581Z,100749.69
2023-03-05T06:10:25.963Z,100749.03
2023-03-05T06:12:56.933Z,100769.00
2023-03-05T06:15:28.329Z,100759.50
2023-03-05T06:17:58.345Z,100743.94
2023-03-05T06:20:28.732Z,100757.38
2023-03-05T06:22:59.051Z,100755.50
2023-03-05T06:25:31.419Z,100753.63
2023-03-05T06:28:01.414Z,100749.38
2023-03-05T06:30:31.780Z,100756.78
2023-03-05T06:33:02.201Z,100751.28
2023-03-05T06:35:32.661Z,100757.03
2023-03-05T06:38:02.639Z,100757.19
2023-03-05T06:40:35.115Z,100756.91
2023-03-05T06:43:06.188Z,100744.91
2023-03-05T06:45:36.039Z,100742.19
2023-03-05T06:48:07.622Z,100739.47
2023-03-05T06:50:39.202Z,100734.72
2023-03-05T06:53:10.515Z,100729.13
2023-03-05T06:55:43.411Z,100744.63
2023-03-05T06:58:13.970Z,100737.81
2023-03-05T07:00:45.921Z,100728.56
2023-03-05T07:03:17.494Z,100727.84
2023-03-05T07:05:47.961Z,100721.00
2023-03-05T07:08:19.300Z,100725.94
2023-03-05T07:10:51.266Z,100727.66
2023-03-05T07:13:21.696Z,100723.25
2023-03-05T07:15:52.235Z,100726.94
2023-03-05T07:18:22.817Z,100712.84
2023-03-05T07:20:53.540Z,100711.66
2023-03-05T07:23:23.806Z,100716.19
2023-03-05T07:25:56.473Z,100709.34
2023-03-05T07:28:27.017Z,100702.47
2023-03-05T07:31:02.365Z,100708.56
2023-03-05T07:33:33.064Z,100699.25
2023-03-05T07:36:05.645Z,100697.28
2023-03-05T07:38:35.465Z,100696.06
2023-03-05T07:41:09.697Z,100690.38
2023-03-05T07:43:41.141Z,100683.47
2023-03-05T07:46:14.982Z,100676.56
2023-03-05T07:48:45.613Z,100675.75
2023-03-05T07:51:18.757Z,100674.91
2023-03-05T07:53:50.553Z,100666.38
2023-03-05T07:56:27.784Z,100667.97
2023-03-05T07:58:57.774Z,100661.84
2023-03-05T08:01:28.485Z,100653.31
2023-03-05T08:03:58.734Z,100651.63
2023-03-05T08:06:29.219Z,100647.09
2023-03-05T08:09:00.245Z,100651.13
2023-03-05T08:11:32.492Z,100643.75
2023-03-05T08:14:05.081Z,100644.13
2023-03-05T08:16:35.915Z,100638.78
2023-03-05T08:19:06.571Z,100639.13
2023-03-05T08:21:39.283Z,100635.41
2023-03-05T08:24:11.795Z,100629.22
2023-03-05T08:26:45.247Z,100633.22
2023-03-05T08:29:15.853Z,100637.63
2023-03-05T08:31:50.205Z,100626.56
2023-03-05T08:34:20.281Z,100632.19
2023-03-05T08:36:51.446Z,100624.41
2023-03-05T08:39:22.234Z,100615.38
2023-03-05T08:41:55.083Z,100614.06
2023-03-05T08:44:25.167Z,100608.69
2023-03-05T08:46:55.629Z,100607.84
2023-03-05T08:49:26.552Z,100592.69
2023-03-05T08:51:56.817Z,100599.56
2023-03-05T08:54:27.029Z,100601.50
2023-03-05T08:56:59.441Z,100603.47
2023-03-05T08:59:29.844Z,100594.00
2023-03-05T09:02:03.555Z,100582.50
2023-03-05T09:04:34.194Z,100577.94
2023-03-05T09:07:04.169Z,100575.44
2023-03-05T09:09:36.087Z,100577.84
2023-03-05T09:12:11.142Z,100583.84
2023-03-05T09:14:42.849Z,100568.72
2023-03-05T09:17:13.613Z,100564.59
2023-03-05T09:19:44.430Z,100555.97
2023-03-05T09:22:14.420Z,100554.31
2023-03-05T09:24:45.832Z,100561.59
2023-03-05T09:27:17.384Z,100560.72
2023-03-05T09:29:48.599Z,100549.22
2023-03-05T09:32:19.100Z,100545.97
2023-03-05T09:34:49.093Z,100539.41
2023-03-05T09:37:19.232Z,100535.66
2023-03-05T09:39:49.866Z,100535.63
2023-03-05T09:43:04.918Z,100538.88
2023-03-05T09:45:45.089Z,100517.66
2023-03-05T09:48:23.516Z,100515.97
2023-03-05T09:51:02.249Z,100513.94
2023-03-05T09:53:46.127Z,100515.56
2023-03-05T09:56:21.788Z,100499.22
2023-03-05T09:58:59.793Z,100499.63
2023-03-05T10:01:39.291Z,100496.31
2023-03-05T10:04:16.661Z,100497.47
2023-03-05T10:07:04.530Z,100482.81
2023-03-05T10:09:51.784Z,100486.91
2023-03-05T10:12:31.717Z,100486.44
2023-03-05T10:15:05.193Z,100469.31
2023-03-05T10:18:00.922Z,100466.91
2023-03-05T10:20:53.723Z,100462.91
2023-03-05T10:23:38.699Z,100464.53
2023-03-05T10:26:30.347Z,100467.06
2023-03-05T10:29:25.423Z,100461.81
2023-03-05T10:32:22.786Z,100454.97
2023-03-05T10:35:22.082Z,100453.38
2023-03-05T10:38:21.884Z,100446.13
2023-03-05T10:40:56.577Z,100440.47
2023-03-05T10:43:38.969Z,100437.25
2023-03-05T10:46:18.052Z,100434.03
2023-03-05T10:48:55.991Z,100426.69
2023-03-05T10:51:43.681Z,100431.63
2023-03-05T10:54:26.941Z,100424.72
2023-03-05T10:57:16.423Z,100412.50
2023-03-05T10:59:53.148Z,100414.56
2023-03-05T11:02:25.055Z,100410.09
2023-03-05T11:04:58.487Z,100399.09
2023-03-05T11:07:40.667Z,100396.69
2023-03-05T11:10:22.973Z,100388.59
2023-03-05T11:12:54.796Z,100388.22
2023-03-05T11:15:32.618Z,100380.06
2023-03-05T11:18:21.759Z,100370.34
2023-03-05T11:20:55.059Z,100372.03
2023-03-05T11:23:26.715Z,100370.03
2023-03-05T11:26:12.777Z,100366.00
2023-03-05T11:28:58.773Z,100358.75
2023-03-05T11:31:32.519Z,100361.69
2023-03-05T11:34:05.956Z,100356.00
2023-03-05T11:36:41.201Z,100350.72
2023-03-05T11:39:20.000Z,100345.91
2023-03-05T11:41:54.458Z,100337.44
2023-03-05T11:44:29.497Z,100342.75
2023-03-05T11:47:05.529Z,100334.63
2023-03-05T11:49:42.264Z,100332.66
2023-03-05T11:52:21.562Z,100334.31
2023-03-05T11:55:03.518Z,100331.91
2023-03-05T11:57:49.427Z,100326.25
2023-03-05T12:00:26.568Z,100321.41
2023-03-05T12:03:01.439Z,100323.88
2023-03-05T12:05:34.294Z,100332.09
2023-03-05T12:08:07.144Z,100315.84
2023-03-05T12:10:37.723Z,100324.84
2023-03-05T12:13:19.545Z,100317.53
2023-03-05T12:16:18.713Z,100311.88
2023-03-05T12:19:05.705Z,100308.28
2023-03-05T12:21:41.860Z,100312.38
2023-03-05T12:24:40.830Z,100309.13
2023-03-05T12:27:19.281Z,100305.94
2023-03-05T12:29:52.333Z,100301.44
2023-03-05T12:32:55.702Z,100295.75
2023-03-05T12:35:32.793Z,100297.78
2023-03-05T12:38:26.890Z,100283.97
2023-03-05T12:41:46.101Z,100279.13
2023-03-05T12:44:26.186Z,100278.69
2023-03-05T12:47:24.024Z,100276.66
2023-03-05T12:49:54.590Z,100268.56
2023-03-05T12:52:33.531Z,100263.66
2023-03-05T12:55:22.034Z,100260.00
2023-03-05T12:58:02.711Z,100262.88
2023-03-05T13:00:49.897Z,100260.44
2023-03-05T13:03:26.428Z,100260.88
2023-03-05T13:06:01.052Z,100251.16
2023-03-05T13:08:36.410Z,100246.69
2023-03-05T13:11:11.981Z,100239.78
2023-03-05T13:13:49.118Z,100245.13
2023-03-05T13:16:22.773Z,100239.06
2023-03-05T13:18:56.175Z,100234.22
2023-03-05T13:21:30.155Z,100231.00
2023-03-05T13:24:03.444Z,100231.06
2023-03-05T13:26:41.597Z,100225.81
2023-03-05T13:29:19.981Z,100224.63
2023-03-05T13:31:54.395Z,100217.41
2023-03-05T13:34:40.865Z,100220.66
2023-03-05T13:37:22.153Z,100218.25
2023-03-05T13:39:57.923Z,100215.03
2023-03-05T13:42:30.605Z,100215.47
2023-03-05T13:45:05.367Z,100216.69
2023-03-05T13:47:38.178Z,100210.63
2023-03-05T13:50:26.636Z,100212.28
2023-03-05T13:52:59.301Z,100203.38
2023-03-05T13:55:29.918Z,100199.31
2023-03-05T13:58:00.602Z,100201.00
2023-03-05T14:00:47.624Z,100205.91
2023-03-05T14:03:28.424Z,100200.69
2023-03-05T14:05:59.894Z,100201.53
2023-03-05T14:08:30.456Z,100200.34
2023-03-05T14:11:13.462Z,100193.03
2023-03-05T14:13:45.586Z,100200.81
2023-03-05T14:16:33.056Z,100187.44
2023-03-05T14:19:08.005Z,100191.16
2023-03-05T14:21:51.390Z,100182.25
2023-03-05T14:24:28.978Z,100188.00
2023-03-05T14:27:03.823Z,100183.97
2023-03-05T14:29:35.926Z,100182.78
2023-03-05T14:32:19.282Z,100181.59
2023-03-05T14:34:59.220Z,100185.28
2023-03-05T14:37:36.840Z,100189.81
2023-03-05T14:40:10.641Z,100184.97
2023-03-05T14:42:59.542Z,100182.16
2023-03-05T14:45:33.660Z,100183.00
2023-03-05T14:48:10.356Z,100186.69
2023-03-05T14:50:45.794Z,100189.97
2023-03-05T14:53:22.672Z,100193.66
2023-03-05T14:55:57.197Z,100201.03
2023-03-05T14:58:30.635Z,100196.97
2023-03-05T15:01:01.833Z,100201.47
2023-03-05T15:03:35.776Z,100189.72
2023-03-05T15:06:07.842Z,100200.34
2023-03-05T15:08:38.833Z,100195.06
2023-03-05T15:11:11.518Z,100210.94
2023-03-05T15:13:42.277Z,100217.47
2023-03-05T15:16:21.447Z,100210.59
2023-03-05T15:18:54.374Z,100217.16
2023-03-05T15:21:27.281Z,100220.84
2023-03-05T15:23:58.140Z,100219.66
2023-03-05T15:26:29.498Z,100222.13
2023-03-05T15:29:00.595Z,100224.56
2023-03-05T15:31:32.277Z,100225.41
2023-03-05T15:34:04.400Z,100227.06
2023-03-05T15:36:34.651Z,100239.22
2023-03-05T15:39:04.623Z,100240.47
2023-03-05T15:41:35.303Z,100246.56
2023-03-05T15:44:05.742Z,100248.22
2023-03-05T15:46:38.159Z,100255.56
2023-03-05T15:49:11.272Z,100263.69
2023-03-05T15:51:42.395Z,100261.69
2023-03-05T15:54:14.433Z,100277.13
2023-03-05T15:56:46.516Z,100277.16
2023-03-05T15:59:18.227Z,100297.03
2023-03-05T16:01:53.206Z,100297.88
2023-03-05T16:04:27.364Z,100300.34
2023-03-05T16:07:00.833Z,100312.53
2023-03-05T16:09:38.631Z,100321.50
2023-03-05T16:12:15.547Z,100324.34
2023-03-05T16:14:45.756Z,100331.66
2023-03-05T16:17:17.663Z,100323.56
2023-03-05T16:19:55.347Z,100338.19
2023-03-05T16:22:26.619Z,100334.97
2023-03-05T16:24:57.179Z,100353.63
2023-03-05T16:27:27.973Z,100355.69
2023-03-05T16:29:58.603Z,100366.63
2023-03-05T16:32:29.269Z,100365.03
2023-03-05T16:35:02.064Z,100369.06
2023-03-05T16:37:32.730Z,100386.53
2023-03-05T16:40:08.919Z,100395.06
2023-03-05T16:42:41.996Z,100390.59
2023-03-05T16:45:15.395Z,100400.34
2023-03-05T16:47:46.567Z,100404.00
2023-03-05T16:50:19.041Z,100413.31
2023-03-05T16:52:49.115Z,100408.84
2023-03-05T16:55:20.490Z,100413.75
2023-03-05T16:57:52.594Z,100411.28
2023-03-05T17:00:25.690Z,100422.25
2023-03-05T17:02:55.546Z,100424.28
2023-03-05T17:05:30.240Z,100438.47
2023-03-05T17:08:02.574Z,100436.06
2023-03-05T17:10:35.870Z,100449.47
2023-03-05T17:13:06.142Z,100455.13
2023-03-05T17:15:36.740Z,100461.63
2023-03-05T17:18:08.735Z,100467.72
2023-03-05T17:20:41.376Z,100472.56
2023-03-05T17:23:11.325Z,100468.06
2023-03-05T17:25:41.979Z,100477.81
2023-03-05T17:28:13.290Z,100484.72
2023-03-05T17:30:43.503Z,100488.78
2023-03-05T17:33:15.587Z,100493.66
2023-03-05T17:35:50.320Z,100508.25
2023-03-05T17:38:22.367Z,100511.50
2023-03-05T17:40:53.145Z,100522.06
2023-03-05T17:43:24.085Z,100522.88
2023-03-05T17:46:00.163Z,100521.25
2023-03-05T17:48:34.916Z,100529.38
2023-03-05T17:51:07.559Z,100539.13
2023-03-05T17:53:39.934Z,100541.56
2023-03-05T17:56:13.200Z,100563.84
2023-03-05T17:58:45.336Z,100574.81
2023-03-05T18:01:25.074Z,100576.03
2023-03-05T18:03:56.460Z,100593.88
2023-03-05T18:06:29.697Z,100598.34
2023-03-05T18:09:00.963Z,100604.84
2023-03-05T18:11:31.219Z,100615.38
2023-03-05T18:14:02.475Z,100617.41
2023-03-05T18:16:33.955Z,100631.19
2023-03-05T18:19:05.124Z,100636.88
2023-03-05T18:21:37.953Z,100637.69
2023-03-05T18:24:09.500Z,100642.56
2023-03-05T18:26:40.097Z,100644.16
2023-03-05T18:29:10.011Z,100644.59
2023-03-05T18:31:39.896Z,100645.38
2023-03-05T18:34:10.367Z,100653.50
2023-03-05T18:36:43.394Z,100658.34
2023-03-05T18:39:16.973Z,100661.56
2023-03-05T18:41:47.751Z,100668.88
2023-03-05T18:44:20.676Z,100671.31
2023-03-05T18:46:51.896Z,100664.81
2023-03-05T18:49:23.278Z,100666.03
2023-03-05T18:51:56.558Z,100669.28
2023-03-05T18:54:27.676Z,100657.94
2023-03-05T18:56:57.833Z,100652.22
2023-03-05T18:59:30.126Z,100656.31
2023-03-05T19:01:59.985Z,100655.06
2023-03-05T19:04:30.763Z,100652.63
2023-03-05T19:07:03.431Z,100648.19
2023-03-05T19:09:48.303Z,100666.81
2023-03-05T19:12:18.682Z,100676.13
2023-03-05T19:14:49.526Z,100681.00
2023-03-05T19:17:23.060Z,100685.41
2023-03-05T19:19:54.094Z,100679.38
2023-03-05T19:22:28.958Z,100680.97
2023-03-05T19:24:59.900Z,100675.28
2023-03-05T19:27:32.006Z,100688.25
2023-03-05T19:30:02.216Z,100691.88
2023-03-05T19:32:32.871Z,100701.19
2023-03-05T19:35:03.505Z,100699.56
2023-03-05T19:37:36.883Z,100701.13
2023-03-05T19:40:09.095Z,100697.91
2023-03-05T19:42:42.794Z,100696.66
2023-03-05T19:45:14.369Z,100705.56
2023-03-05T19:47:44.625Z,100703.53
2023-03-05T19:50:19.809Z,100703.16
2023-03-05T19:52:52.763Z,100711.22
2023-03-05T19:55:23.390Z,100712.84
2023-03-05T19:57:53.876Z,100722.94
2023-03-05T20:00:27.358Z,100721.72
2023-03-05T20:02:58.672Z,100740.31
2023-03-05T20:05:29.896Z,100740.69
2023-03-05T20:08:01.860Z,100739.47
2023-03-05T20:10:32.081Z,100745.91
2023-03-05T20:13:02.650Z,100750.78
2023-03-05T20:15:33.240Z,100758.84
2023-03-05T20:18:03.230Z,100763.31
2023-03-05T20:20:33.912Z,100765.28
2023-03-05T20:23:06.821Z,100769.31
2023-03-05T20:25:37.733Z,100772.97
2023-03-05T20:28:07.912Z,100776.16
2023-03-05T20:30:38.411Z,100786.28
2023-03-05T20:33:08.611Z,100792.31
2023-03-05T20:35:39.134Z,100785.81
2023-03-05T20:38:21.100Z,100790.25
2023-03-05T20:40:52.716Z,100784.56
2023-03-05T20:43:25.354Z,100781.31
2023-03-05T20:45:57.556Z,100775.22
2023-03-05T20:48:29.402Z,100776.81
2023-03-05T20:51:02.192Z,100779.22
2023-03-05T20:53:34.607Z,100786.09
2023-03-05T20:56:05.694Z,100785.66
2023-03-05T20:58:35.581Z,100774.31
2023-03-05T21:01:06.349Z,100773.88
2023-03-05T21:03:40.743Z,100779.53
2023-03-05T21:06:12.205Z,100783.56
2023-03-05T21:08:44.889Z,100785.97
2023-03-05T21:11:16.683Z,100778.66
2023-03-05T21:13:47.587Z,100793.19
2023-03-05T21:16:22.706Z,100804.09
2023-03-05T21:18:53.328Z,100807.31
2023-03-05T21:21:24.362Z,100804.91
2023-03-05T21:23:57.203Z,100796.34
2023-03-05T21:26:27.407Z,100797.59
2023-03-05T21:28:59.906Z,100812.94
2023-03-05T21:31:30.396Z,100820.16
2023-03-05T21:34:00.919Z,100830.69
2023-03-05T21:36:34.063Z,100829.06
2023-03-05T21:39:11.018Z,100830.66
2023-03-05T21:41:42.157Z,100832.22
2023-03-05T21:44:16.095Z,100845.09
2023-03-05T21:46:46.239Z,100845.06
2023-03-05T21:49:16.845Z,100849.91
2023-03-05T21:52:02.310Z,100852.66
2023-03-05T21:54:35.171Z,100852.63
2023-03-05T21:57:05.223Z,100858.25
2023-03-05T21:59:35.457Z,100861.84
2023-03-05T22:02:06.056Z,100862.63
2023-03-05T22:04:36.822Z,100869.06
2023-03-05T22:07:11.881Z,100872.25
2023-03-05T22:09:44.217Z,100864.53
2023-03-05T22:12:21.123Z,100867.75
2023-03-05T22:14:52.503Z,100856.38
2023-03-05T22:17:22.502Z,100851.91
2023-03-05T22:19:52.574Z,100857.56
2023-03-05T22:22:22.444Z,100857.97
2023-03-05T22:24:54.431Z,100860.34
2023-03-05T22:27:24.962Z,100865.59
2023-03-05T22:29:55.563Z,100873.66
2023-03-05T22:32:26.506Z,100881.69
2023-03-05T22:34:59.032Z,100879.63
2023-03-05T22:37:30.528Z,100872.31
2023-03-05T22:40:03.421Z,100867.44
2023-03-05T22:42:33.678Z,100873.84
2023-03-05T22:45:04.491Z,100871.78
2023-03-05T22:47:35.150Z,100862.50
2023-03-05T22:50:06.764Z,100868.53
2023-03-05T22:52:37.384Z,100870.13
2023-03-05T22:55:13.908Z,100873.34
2023-03-05T22:57:46.222Z,100878.94
2023-03-05T23:00:21.988Z,100873.25
2023-03-05T23:02:52.677Z,100884.47
2023-03-05T23:05:23.703Z,100886.06
2023-03-05T23:07:54.304Z,100881.19
2023-03-05T23:10:29.768Z,100897.31
2023-03-05T23:13:10.312Z,100892.41
2023-03-05T23:15:42.215Z,100904.91
2023-03-05T23:18:16.645Z,100907.75
2023-03-05T23:20:58.665Z,100905.31
2023-03-05T23:23:28.897Z,100904.50
2023-03-05T23:26:00.860Z,100909.31
2023-03-05T23:28:31.464Z,100913.72
2023-03-05T23:31:03.204Z,100908.47
2023-03-05T23:33:33.713Z,100913.28
2023-03-05T23:36:04.946Z,100917.31
2023-03-05T23:38:37.500Z,100921.31
2023-03-05T23:41:12.285Z,100923.34
2023-03-05T23:43:42.946Z,100924.53
2023-03-05T23:46:14.625Z,100931.81
2023-03-05T23:48:45.042Z,100928.56
2023-03-05T23:51:15.421Z,100932.56
2023-03-05T23:53:51.603Z,100939.06
2023-03-05T23:56:23.554Z,100936.59
2023-03-05T23:58:56.492Z,100940.59
